sensor_id;sensor_type;location;lat;lon;timestamp;P1;durP1;ratioP1;P2;durP2;ratioP2
51828;SDS011;37881;48.024;8.774;2022-10-28T00:01:12;19.42;;;7.80;;
51828;SDS011;37881;48.024;8.774;2022-10-28T00:03:42;16.23;;;7.37;;
51828;SDS011;37881;48.024;8.774;2022-10-28T00:06:12;16.10;;;7.57;;
51828;SDS011;37881;48.024;8.774;2022-10-28T00:08:40;18.85;;;7.90;;
51828;SDS011;37881;48.024;8.774;2022-10-28T00:11:08;17.27;;;8.40;;
51828;SDS011;37881;48.024;8.774;2022-10-28T00:13:43;16.00;;;7.63;;
51828;SDS011;37881;48.024;8.774;2022-10-28T00:16:15;17.43;;;7.40;;
51828;SDS011;37881;48.024;8.774;2022-10-28T00:18:44;17.17;;;7.60;;
51828;SDS011;37881;48.024;8.774;2022-10-28T00:21:13;15.20;;;7.28;;
51828;SDS011;37881;48.024;8.774;2022-10-28T00:23:42;18.58;;;8.63;;
51828;SDS011;37881;48.024;8.774;2022-10-28T00:26:14;14.48;;;7.03;;
51828;SDS011;37881;48.024;8.774;2022-10-28T00:28:47;18.47;;;7.60;;
51828;SDS011;37881;48.024;8.774;2022-10-28T00:31:16;16.23;;;7.50;;
51828;SDS011;37881;48.024;8.774;2022-10-28T00:33:45;16.10;;;7.63;;
51828;SDS011;37881;48.024;8.774;2022-10-28T00:36:15;14.50;;;7.15;;
51828;SDS011;37881;48.024;8.774;2022-10-28T00:38:44;15.10;;;7.75;;
51828;SDS011;37881;48.024;8.774;2022-10-28T00:41:17;14.47;;;7.60;;
51828;SDS011;37881;48.024;8.774;2022-10-28T00:43:49;14.73;;;7.50;;
51828;SDS011;37881;48.024;8.774;2022-10-28T00:49:03;15.88;;;7.22;;
51828;SDS011;37881;48.024;8.774;2022-10-28T00:51:34;16.25;;;7.55;;
51828;SDS011;37881;48.024;8.774;2022-10-28T00:54:01;14.50;;;7.17;;
51828;SDS011;37881;48.024;8.774;2022-10-28T00:56:31;16.45;;;7.45;;
51828;SDS011;37881;48.024;8.774;2022-10-28T00:58:59;13.48;;;6.85;;
51828;SDS011;37881;48.024;8.774;2022-10-28T01:01:29;13.35;;;6.85;;
51828;SDS011;37881;48.024;8.774;2022-10-28T01:03:56;13.50;;;7.18;;
51828;SDS011;37881;48.024;8.774;2022-10-28T01:06:23;14.63;;;6.90;;
51828;SDS011;37881;48.024;8.774;2022-10-28T01:08:52;13.65;;;6.57;;
51828;SDS011;37881;48.024;8.774;2022-10-28T01:14:26;17.05;;;7.05;;
51828;SDS011;37881;48.024;8.774;2022-10-28T01:20:07;13.20;;;6.60;;
51828;SDS011;37881;48.024;8.774;2022-10-28T01:31:12;16.83;;;6.88;;
51828;SDS011;37881;48.024;8.774;2022-10-28T01:33:51;14.43;;;6.67;;
51828;SDS011;37881;48.024;8.774;2022-10-28T01:50:17;14.13;;;7.00;;
51828;SDS011;37881;48.024;8.774;2022-10-28T01:52:29;15.50;;;7.10;;
51828;SDS011;37881;48.024;8.774;2022-10-28T01:55:05;15.50;;;6.85;;
51828;SDS011;37881;48.024;8.774;2022-10-28T01:57:38;16.10;;;7.30;;
51828;SDS011;37881;48.024;8.774;2022-10-28T02:00:07;18.10;;;7.70;;
51828;SDS011;37881;48.024;8.774;2022-10-28T02:02:35;14.38;;;7.47;;
51828;SDS011;37881;48.024;8.774;2022-10-28T02:13:45;13.80;;;6.90;;
51828;SDS011;37881;48.024;8.774;2022-10-28T02:16:37;13.93;;;7.60;;
51828;SDS011;37881;48.024;8.774;2022-10-28T02:24:06;14.70;;;8.25;;
51828;SDS011;37881;48.024;8.774;2022-10-28T02:26:40;41.23;;;21.87;;
51828;SDS011;37881;48.024;8.774;2022-10-28T02:29:27;18.10;;;8.63;;
51828;SDS011;37881;48.024;8.774;2022-10-28T02:31:58;16.48;;;8.18;;
51828;SDS011;37881;48.024;8.774;2022-10-28T02:34:34;18.23;;;8.32;;
51828;SDS011;37881;48.024;8.774;2022-10-28T02:37:05;14.80;;;7.38;;
51828;SDS011;37881;48.024;8.774;2022-10-28T02:39:40;16.10;;;7.10;;
51828;SDS011;37881;48.024;8.774;2022-10-28T02:42:12;15.73;;;7.30;;
51828;SDS011;37881;48.024;8.774;2022-10-28T02:44:46;16.30;;;7.90;;
51828;SDS011;37881;48.024;8.774;2022-10-28T02:47:17;13.63;;;7.57;;
51828;SDS011;37881;48.024;8.774;2022-10-28T02:49:52;16.95;;;7.35;;
51828;SDS011;37881;48.024;8.774;2022-10-28T02:52:23;18.23;;;8.50;;
51828;SDS011;37881;48.024;8.774;2022-10-28T02:54:55;16.92;;;8.10;;
51828;SDS011;37881;48.024;8.774;2022-10-28T02:57:46;16.25;;;7.50;;
51828;SDS011;37881;48.024;8.774;2022-10-28T03:00:16;18.23;;;7.70;;
51828;SDS011;37881;48.024;8.774;2022-10-28T03:02:45;15.48;;;7.80;;
51828;SDS011;37881;48.024;8.774;2022-10-28T03:05:12;14.80;;;7.30;;
51828;SDS011;37881;48.024;8.774;2022-10-28T03:07:39;15.35;;;6.97;;
51828;SDS011;37881;48.024;8.774;2022-10-28T03:10:06;15.10;;;7.25;;
51828;SDS011;37881;48.024;8.774;2022-10-28T03:12:33;14.80;;;7.55;;
51828;SDS011;37881;48.024;8.774;2022-10-28T03:15:00;21.80;;;9.48;;
51828;SDS011;37881;48.024;8.774;2022-10-28T03:17:28;21.87;;;10.43;;
51828;SDS011;37881;48.024;8.774;2022-10-28T03:19:54;13.55;;;7.75;;
51828;SDS011;37881;48.024;8.774;2022-10-28T03:22:21;13.52;;;6.97;;
51828;SDS011;37881;48.024;8.774;2022-10-28T03:24:48;12.90;;;7.07;;
51828;SDS011;37881;48.024;8.774;2022-10-28T03:27:14;27.55;;;11.95;;
51828;SDS011;37881;48.024;8.774;2022-10-28T03:29:41;24.07;;;9.97;;
51828;SDS011;37881;48.024;8.774;2022-10-28T03:32:11;16.10;;;7.43;;
51828;SDS011;37881;48.024;8.774;2022-10-28T03:34:38;13.68;;;6.95;;
51828;SDS011;37881;48.024;8.774;2022-10-28T03:37:05;13.48;;;6.38;;
51828;SDS011;37881;48.024;8.774;2022-10-28T03:39:31;12.85;;;6.85;;
51828;SDS011;37881;48.024;8.774;2022-10-28T03:41:58;12.13;;;6.30;;
51828;SDS011;37881;48.024;8.774;2022-10-28T03:44:25;12.02;;;6.00;;
51828;SDS011;37881;48.024;8.774;2022-10-28T03:46:51;11.75;;;6.07;;
51828;SDS011;37881;48.024;8.774;2022-10-28T03:49:18;12.45;;;6.30;;
51828;SDS011;37881;48.024;8.774;2022-10-28T03:51:45;12.60;;;6.85;;
51828;SDS011;37881;48.024;8.774;2022-10-28T03:54:11;16.53;;;6.20;;
51828;SDS011;37881;48.024;8.774;2022-10-28T03:56:38;11.35;;;6.00;;
51828;SDS011;37881;48.024;8.774;2022-10-28T03:59:07;16.55;;;6.30;;
51828;SDS011;37881;48.024;8.774;2022-10-28T04:01:35;16.63;;;6.50;;
51828;SDS011;37881;48.024;8.774;2022-10-28T04:04:02;13.38;;;6.55;;
51828;SDS011;37881;48.024;8.774;2022-10-28T04:06:28;14.63;;;7.33;;
51828;SDS011;37881;48.024;8.774;2022-10-28T04:08:55;17.10;;;8.40;;
51828;SDS011;37881;48.024;8.774;2022-10-28T04:11:22;16.00;;;7.90;;
51828;SDS011;37881;48.024;8.774;2022-10-28T04:13:48;17.20;;;8.82;;
51828;SDS011;37881;48.024;8.774;2022-10-28T04:16:15;23.10;;;11.35;;
51828;SDS011;37881;48.024;8.774;2022-10-28T04:18:42;44.10;;;24.90;;
51828;SDS011;37881;48.024;8.774;2022-10-28T04:21:08;37.08;;;21.27;;
51828;SDS011;37881;48.024;8.774;2022-10-28T04:23:35;29.77;;;16.10;;
51828;SDS011;37881;48.024;8.774;2022-10-28T04:26:02;20.20;;;8.88;;
51828;SDS011;37881;48.024;8.774;2022-10-28T04:28:28;18.67;;;11.05;;
51828;SDS011;37881;48.024;8.774;2022-10-28T04:30:55;15.13;;;8.40;;
51828;SDS011;37881;48.024;8.774;2022-10-28T04:33:22;17.95;;;8.07;;
51828;SDS011;37881;48.024;8.774;2022-10-28T04:35:48;17.48;;;8.55;;
51828;SDS011;37881;48.024;8.774;2022-10-28T04:38:15;16.10;;;7.80;;
51828;SDS011;37881;48.024;8.774;2022-10-28T04:40:42;13.80;;;6.70;;
51828;SDS011;37881;48.024;8.774;2022-10-28T04:43:08;15.90;;;6.57;;
51828;SDS011;37881;48.024;8.774;2022-10-28T04:45:37;10.95;;;6.20;;
51828;SDS011;37881;48.024;8.774;2022-10-28T04:48:04;15.70;;;9.40;;
51828;SDS011;37881;48.024;8.774;2022-10-28T04:50:31;15.35;;;9.95;;
51828;SDS011;37881;48.024;8.774;2022-10-28T04:52:58;14.30;;;7.00;;
51828;SDS011;37881;48.024;8.774;2022-10-28T04:55:25;13.33;;;6.43;;
51828;SDS011;37881;48.024;8.774;2022-10-28T04:57:52;15.45;;;6.60;;
51828;SDS011;37881;48.024;8.774;2022-10-28T05:00:23;15.50;;;7.47;;
51828;SDS011;37881;48.024;8.774;2022-10-28T05:02:51;12.25;;;5.82;;
51828;SDS011;37881;48.024;8.774;2022-10-28T05:05:19;12.30;;;6.30;;
51828;SDS011;37881;48.024;8.774;2022-10-28T05:07:46;13.10;;;7.00;;
51828;SDS011;37881;48.024;8.774;2022-10-28T05:10:13;13.15;;;7.38;;
51828;SDS011;37881;48.024;8.774;2022-10-28T05:12:46;14.10;;;7.47;;
51828;SDS011;37881;48.024;8.774;2022-10-28T05:15:13;14.23;;;7.68;;
51828;SDS011;37881;48.024;8.774;2022-10-28T05:17:43;13.77;;;7.10;;
51828;SDS011;37881;48.024;8.774;2022-10-28T05:20:11;13.47;;;7.23;;
51828;SDS011;37881;48.024;8.774;2022-10-28T05:22:50;15.55;;;7.80;;
51828;SDS011;37881;48.024;8.774;2022-10-28T05:25:19;13.85;;;7.32;;
51828;SDS011;37881;48.024;8.774;2022-10-28T05:27:47;12.93;;;7.00;;
51828;SDS011;37881;48.024;8.774;2022-10-28T05:30:13;14.10;;;7.50;;
51828;SDS011;37881;48.024;8.774;2022-10-28T05:32:40;13.73;;;7.00;;
51828;SDS011;37881;48.024;8.774;2022-10-28T05:35:08;14.63;;;6.53;;
51828;SDS011;37881;48.024;8.774;2022-10-28T05:37:35;15.73;;;7.50;;
51828;SDS011;37881;48.024;8.774;2022-10-28T05:40:02;18.92;;;7.22;;
51828;SDS011;37881;48.024;8.774;2022-10-28T05:42:29;14.88;;;7.15;;
51828;SDS011;37881;48.024;8.774;2022-10-28T05:44:56;12.70;;;7.07;;
51828;SDS011;37881;48.024;8.774;2022-10-28T05:47:22;15.05;;;6.97;;
51828;SDS011;37881;48.024;8.774;2022-10-28T05:49:49;18.40;;;7.07;;
51828;SDS011;37881;48.024;8.774;2022-10-28T05:52:15;12.90;;;6.80;;
51828;SDS011;37881;48.024;8.774;2022-10-28T05:54:42;12.98;;;6.75;;
51828;SDS011;37881;48.024;8.774;2022-10-28T05:57:09;14.33;;;6.33;;
51828;SDS011;37881;48.024;8.774;2022-10-28T05:59:35;13.43;;;6.65;;
51828;SDS011;37881;48.024;8.774;2022-10-28T06:02:02;15.63;;;6.75;;
51828;SDS011;37881;48.024;8.774;2022-10-28T06:04:29;15.27;;;6.60;;
51828;SDS011;37881;48.024;8.774;2022-10-28T06:06:56;12.25;;;6.40;;
51828;SDS011;37881;48.024;8.774;2022-10-28T06:09:23;13.87;;;6.90;;
51828;SDS011;37881;48.024;8.774;2022-10-28T06:11:52;17.60;;;6.70;;
51828;SDS011;37881;48.024;8.774;2022-10-28T06:14:19;11.75;;;6.55;;
51828;SDS011;37881;48.024;8.774;2022-10-28T06:16:46;14.30;;;6.82;;
51828;SDS011;37881;48.024;8.774;2022-10-28T06:19:12;15.85;;;7.30;;
51828;SDS011;37881;48.024;8.774;2022-10-28T06:21:39;18.80;;;9.00;;
51828;SDS011;37881;48.024;8.774;2022-10-28T06:24:06;22.35;;;10.93;;
51828;SDS011;37881;48.024;8.774;2022-10-28T06:26:39;24.75;;;10.90;;
51828;SDS011;37881;48.024;8.774;2022-10-28T06:29:06;18.35;;;9.23;;
51828;SDS011;37881;48.024;8.774;2022-10-28T06:31:38;17.55;;;7.45;;
51828;SDS011;37881;48.024;8.774;2022-10-28T06:34:05;17.67;;;7.70;;
51828;SDS011;37881;48.024;8.774;2022-10-28T06:36:32;16.88;;;7.28;;
51828;SDS011;37881;48.024;8.774;2022-10-28T06:38:58;14.05;;;7.03;;
51828;SDS011;37881;48.024;8.774;2022-10-28T06:41:25;16.23;;;7.07;;
51828;SDS011;37881;48.024;8.774;2022-10-28T06:43:52;15.30;;;6.97;;
51828;SDS011;37881;48.024;8.774;2022-10-28T06:46:18;15.27;;;7.00;;
51828;SDS011;37881;48.024;8.774;2022-10-28T06:48:45;14.40;;;6.90;;
51828;SDS011;37881;48.024;8.774;2022-10-28T06:51:12;18.08;;;8.30;;
51828;SDS011;37881;48.024;8.774;2022-10-28T06:53:38;21.60;;;10.43;;
51828;SDS011;37881;48.024;8.774;2022-10-28T06:56:05;18.17;;;9.73;;
51828;SDS011;37881;48.024;8.774;2022-10-28T06:58:32;15.87;;;8.07;;
51828;SDS011;37881;48.024;8.774;2022-10-28T07:01:02;16.10;;;8.02;;
51828;SDS011;37881;48.024;8.774;2022-10-28T07:03:30;17.27;;;8.00;;
51828;SDS011;37881;48.024;8.774;2022-10-28T07:05:58;13.63;;;7.20;;
51828;SDS011;37881;48.024;8.774;2022-10-28T07:08:26;18.60;;;9.18;;
51828;SDS011;37881;48.024;8.774;2022-10-28T07:10:54;20.53;;;9.40;;
51828;SDS011;37881;48.024;8.774;2022-10-28T07:13:22;18.98;;;9.35;;
51828;SDS011;37881;48.024;8.774;2022-10-28T07:15:54;18.48;;;9.63;;
51828;SDS011;37881;48.024;8.774;2022-10-28T07:18:24;16.92;;;7.90;;
51828;SDS011;37881;48.024;8.774;2022-10-28T07:20:52;18.17;;;8.48;;
51828;SDS011;37881;48.024;8.774;2022-10-28T07:23:19;18.00;;;7.80;;
51828;SDS011;37881;48.024;8.774;2022-10-28T07:25:52;14.38;;;8.05;;
51828;SDS011;37881;48.024;8.774;2022-10-28T07:28:23;13.98;;;7.43;;
51828;SDS011;37881;48.024;8.774;2022-10-28T07:30:51;19.73;;;9.15;;
51828;SDS011;37881;48.024;8.774;2022-10-28T07:33:18;19.77;;;9.02;;
51828;SDS011;37881;48.024;8.774;2022-10-28T07:35:44;12.97;;;7.80;;
51828;SDS011;37881;48.024;8.774;2022-10-28T07:38:11;13.15;;;7.20;;
51828;SDS011;37881;48.024;8.774;2022-10-28T07:40:38;19.27;;;10.70;;
51828;SDS011;37881;48.024;8.774;2022-10-28T07:43:04;22.63;;;9.65;;
51828;SDS011;37881;48.024;8.774;2022-10-28T07:45:31;16.98;;;8.75;;
51828;SDS011;37881;48.024;8.774;2022-10-28T07:47:59;14.90;;;7.00;;
51828;SDS011;37881;48.024;8.774;2022-10-28T07:50:25;17.13;;;7.20;;
51828;SDS011;37881;48.024;8.774;2022-10-28T07:52:52;17.70;;;7.15;;
51828;SDS011;37881;48.024;8.774;2022-10-28T07:55:19;17.55;;;7.03;;
51828;SDS011;37881;48.024;8.774;2022-10-28T07:57:47;14.68;;;6.50;;
51828;SDS011;37881;48.024;8.774;2022-10-28T08:00:14;18.00;;;7.00;;
51828;SDS011;37881;48.024;8.774;2022-10-28T08:02:41;15.02;;;6.38;;
51828;SDS011;37881;48.024;8.774;2022-10-28T08:05:07;15.70;;;6.47;;
51828;SDS011;37881;48.024;8.774;2022-10-28T08:07:34;16.30;;;6.40;;
51828;SDS011;37881;48.024;8.774;2022-10-28T08:10:04;15.20;;;6.30;;
51828;SDS011;37881;48.024;8.774;2022-10-28T08:12:31;13.97;;;5.83;;
51828;SDS011;37881;48.024;8.774;2022-10-28T08:14:58;15.40;;;5.80;;
51828;SDS011;37881;48.024;8.774;2022-10-28T08:17:25;13.02;;;6.38;;
51828;SDS011;37881;48.024;8.774;2022-10-28T08:19:52;14.50;;;6.47;;
51828;SDS011;37881;48.024;8.774;2022-10-28T08:22:18;12.77;;;6.10;;
51828;SDS011;37881;48.024;8.774;2022-10-28T08:24:45;15.30;;;6.13;;
51828;SDS011;37881;48.024;8.774;2022-10-28T08:27:11;14.75;;;5.97;;
51828;SDS011;37881;48.024;8.774;2022-10-28T08:29:38;11.73;;;5.57;;
51828;SDS011;37881;48.024;8.774;2022-10-28T08:32:08;14.02;;;6.75;;
51828;SDS011;37881;48.024;8.774;2022-10-28T08:34:34;15.52;;;7.03;;
51828;SDS011;37881;48.024;8.774;2022-10-28T08:37:07;17.60;;;6.70;;
51828;SDS011;37881;48.024;8.774;2022-10-28T08:39:34;17.20;;;6.63;;
51828;SDS011;37881;48.024;8.774;2022-10-28T08:47:44;13.35;;;5.93;;
51828;SDS011;37881;48.024;8.774;2022-10-28T08:50:19;13.87;;;6.90;;
51828;SDS011;37881;48.024;8.774;2022-10-28T08:55:30;12.88;;;6.85;;
51828;SDS011;37881;48.024;8.774;2022-10-28T08:58:06;14.57;;;7.50;;
51828;SDS011;37881;48.024;8.774;2022-10-28T09:00:37;15.77;;;8.00;;
51828;SDS011;37881;48.024;8.774;2022-10-28T09:05:38;14.48;;;6.80;;
51828;SDS011;37881;48.024;8.774;2022-10-28T09:08:18;14.93;;;7.60;;
51828;SDS011;37881;48.024;8.774;2022-10-28T09:13:37;13.88;;;7.65;;
51828;SDS011;37881;48.024;8.774;2022-10-28T09:16:19;12.20;;;5.80;;
51828;SDS011;37881;48.024;8.774;2022-10-28T09:18:52;17.17;;;5.95;;
51828;SDS011;37881;48.024;8.774;2022-10-28T09:21:29;13.38;;;5.90;;
51828;SDS011;37881;48.024;8.774;2022-10-28T09:23:58;11.32;;;5.60;;
51828;SDS011;37881;48.024;8.774;2022-10-28T09:26:44;14.27;;;5.88;;
51828;SDS011;37881;48.024;8.774;2022-10-28T09:34:50;14.38;;;5.38;;
51828;SDS011;37881;48.024;8.774;2022-10-28T09:37:36;11.25;;;5.25;;
51828;SDS011;37881;48.024;8.774;2022-10-28T09:42:39;14.37;;;5.07;;
51828;SDS011;37881;48.024;8.774;2022-10-28T09:45:11;11.77;;;4.70;;
51828;SDS011;37881;48.024;8.774;2022-10-28T09:47:43;12.60;;;4.28;;
51828;SDS011;37881;48.024;8.774;2022-10-28T09:50:20;14.25;;;5.00;;
51828;SDS011;37881;48.024;8.774;2022-10-28T09:52:58;12.35;;;4.57;;
51828;SDS011;37881;48.024;8.774;2022-10-28T09:55:46;11.83;;;4.40;;
51828;SDS011;37881;48.024;8.774;2022-10-28T09:58:12;12.48;;;4.43;;
51828;SDS011;37881;48.024;8.774;2022-10-28T10:00:39;9.95;;;4.47;;
51828;SDS011;37881;48.024;8.774;2022-10-28T10:03:06;11.43;;;4.30;;
51828;SDS011;37881;48.024;8.774;2022-10-28T10:05:36;10.95;;;4.32;;
51828;SDS011;37881;48.024;8.774;2022-10-28T10:08:09;11.70;;;4.40;;
51828;SDS011;37881;48.024;8.774;2022-10-28T10:10:55;13.40;;;3.83;;
51828;SDS011;37881;48.024;8.774;2022-10-28T10:13:27;9.30;;;3.88;;
51828;SDS011;37881;48.024;8.774;2022-10-28T10:18:50;11.23;;;3.80;;
51828;SDS011;37881;48.024;8.774;2022-10-28T10:21:41;7.10;;;3.67;;
51828;SDS011;37881;48.024;8.774;2022-10-28T10:24:23;11.73;;;3.83;;
51828;SDS011;37881;48.024;8.774;2022-10-28T10:26:51;11.90;;;3.97;;
51828;SDS011;37881;48.024;8.774;2022-10-28T10:29:18;10.10;;;3.45;;
51828;SDS011;37881;48.024;8.774;2022-10-28T10:31:46;8.95;;;3.65;;
51828;SDS011;37881;48.024;8.774;2022-10-28T10:34:21;10.03;;;3.80;;
51828;SDS011;37881;48.024;8.774;2022-10-28T10:36:51;9.20;;;3.42;;
51828;SDS011;37881;48.024;8.774;2022-10-28T10:39:21;9.68;;;3.28;;
51828;SDS011;37881;48.024;8.774;2022-10-28T10:41:55;12.00;;;3.45;;
51828;SDS011;37881;48.024;8.774;2022-10-28T10:49:20;12.02;;;3.53;;
51828;SDS011;37881;48.024;8.774;2022-10-28T10:51:54;11.48;;;3.33;;
51828;SDS011;37881;48.024;8.774;2022-10-28T10:54:28;7.15;;;3.17;;
51828;SDS011;37881;48.024;8.774;2022-10-28T10:57:16;9.55;;;3.10;;
51828;SDS011;37881;48.024;8.774;2022-10-28T10:59:46;11.80;;;4.30;;
51828;SDS011;37881;48.024;8.774;2022-10-28T11:02:30;10.45;;;3.95;;
51828;SDS011;37881;48.024;8.774;2022-10-28T11:05:05;11.77;;;4.05;;
51828;SDS011;37881;48.024;8.774;2022-10-28T11:07:34;11.07;;;3.15;;
51828;SDS011;37881;48.024;8.774;2022-10-28T11:10:02;8.68;;;3.28;;
51828;SDS011;37881;48.024;8.774;2022-10-28T11:12:31;10.63;;;2.83;;
51828;SDS011;37881;48.024;8.774;2022-10-28T11:17:31;9.05;;;2.50;;
51828;SDS011;37881;48.024;8.774;2022-10-28T11:20:00;8.90;;;2.35;;
51828;SDS011;37881;48.024;8.774;2022-10-28T11:22:56;9.70;;;2.60;;
51828;SDS011;37881;48.024;8.774;2022-10-28T11:34:23;10.23;;;2.40;;
51828;SDS011;37881;48.024;8.774;2022-10-28T11:40:16;7.13;;;2.23;;
51828;SDS011;37881;48.024;8.774;2022-10-28T11:43:09;8.35;;;2.10;;
51828;SDS011;37881;48.024;8.774;2022-10-28T11:45:45;7.15;;;2.38;;
51828;SDS011;37881;48.024;8.774;2022-10-28T11:51:25;9.13;;;2.60;;
51828;SDS011;37881;48.024;8.774;2022-10-28T11:56:59;6.75;;;2.30;;
51828;SDS011;37881;48.024;8.774;2022-10-28T12:05:51;10.63;;;3.50;;
51828;SDS011;37881;48.024;8.774;2022-10-28T12:08:39;9.17;;;2.50;;
51828;SDS011;37881;48.024;8.774;2022-10-28T12:13:47;9.73;;;2.78;;
51828;SDS011;37881;48.024;8.774;2022-10-28T12:19:33;9.32;;;2.40;;
51828;SDS011;37881;48.024;8.774;2022-10-28T12:22:17;9.37;;;2.40;;
51828;SDS011;37881;48.024;8.774;2022-10-28T12:24:51;6.50;;;2.20;;
51828;SDS011;37881;48.024;8.774;2022-10-28T12:29:59;6.68;;;2.30;;
51828;SDS011;37881;48.024;8.774;2022-10-28T12:32:47;6.85;;;1.95;;
51828;SDS011;37881;48.024;8.774;2022-10-28T12:35:24;5.63;;;2.00;;
51828;SDS011;37881;48.024;8.774;2022-10-28T12:38:31;9.27;;;2.65;;
51828;SDS011;37881;48.024;8.774;2022-10-28T12:41:01;10.05;;;2.40;;
51828;SDS011;37881;48.024;8.774;2022-10-28T12:46:27;7.38;;;2.30;;
51828;SDS011;37881;48.024;8.774;2022-10-28T12:49:15;11.47;;;2.30;;
51828;SDS011;37881;48.024;8.774;2022-10-28T12:51:50;10.77;;;2.50;;
51828;SDS011;37881;48.024;8.774;2022-10-28T12:54:20;7.95;;;2.60;;
51828;SDS011;37881;48.024;8.774;2022-10-28T12:56:56;8.82;;;2.72;;
51828;SDS011;37881;48.024;8.774;2022-10-28T12:59:36;8.65;;;2.60;;
51828;SDS011;37881;48.024;8.774;2022-10-28T13:02:12;8.93;;;2.77;;
51828;SDS011;37881;48.024;8.774;2022-10-28T13:04:45;8.15;;;2.55;;
51828;SDS011;37881;48.024;8.774;2022-10-28T13:07:16;7.95;;;2.70;;
51828;SDS011;37881;48.024;8.774;2022-10-28T13:10:20;7.55;;;2.63;;
51828;SDS011;37881;48.024;8.774;2022-10-28T13:13:02;8.68;;;2.85;;
51828;SDS011;37881;48.024;8.774;2022-10-28T13:21:22;7.70;;;2.78;;
51828;SDS011;37881;48.024;8.774;2022-10-28T13:26:40;12.25;;;2.90;;
51828;SDS011;37881;48.024;8.774;2022-10-28T13:29:15;11.00;;;3.20;;
51828;SDS011;37881;48.024;8.774;2022-10-28T13:31:49;10.43;;;3.03;;
51828;SDS011;37881;48.024;8.774;2022-10-28T13:34:18;11.93;;;3.40;;
51828;SDS011;37881;48.024;8.774;2022-10-28T13:36:57;11.57;;;3.03;;
51828;SDS011;37881;48.024;8.774;2022-10-28T13:47:22;9.40;;;3.42;;
51828;SDS011;37881;48.024;8.774;2022-10-28T13:52:38;12.77;;;3.50;;
51828;SDS011;37881;48.024;8.774;2022-10-28T13:57:42;11.80;;;3.45;;
51828;SDS011;37881;48.024;8.774;2022-10-28T14:02:46;11.25;;;3.80;;
51828;SDS011;37881;48.024;8.774;2022-10-28T14:05:16;10.32;;;3.65;;
51828;SDS011;37881;48.024;8.774;2022-10-28T14:07:54;11.93;;;3.60;;
51828;SDS011;37881;48.024;8.774;2022-10-28T14:10:27;9.98;;;3.65;;
51828;SDS011;37881;48.024;8.774;2022-10-28T14:13:06;13.45;;;3.78;;
51828;SDS011;37881;48.024;8.774;2022-10-28T14:15:43;9.90;;;4.00;;
51828;SDS011;37881;48.024;8.774;2022-10-28T14:21:00;12.17;;;4.30;;
51828;SDS011;37881;48.024;8.774;2022-10-28T14:45:03;15.80;;;4.88;;
51828;SDS011;37881;48.024;8.774;2022-10-28T14:50:44;11.55;;;4.25;;
51828;SDS011;37881;48.024;8.774;2022-10-28T14:53:16;15.35;;;4.60;;
51828;SDS011;37881;48.024;8.774;2022-10-28T14:55:48;10.70;;;4.20;;
51828;SDS011;37881;48.024;8.774;2022-10-28T14:58:23;14.25;;;4.53;;
51828;SDS011;37881;48.024;8.774;2022-10-28T15:01:08;10.53;;;4.50;;
51828;SDS011;37881;48.024;8.774;2022-10-28T15:03:49;10.68;;;4.50;;
51828;SDS011;37881;48.024;8.774;2022-10-28T15:11:44;15.23;;;5.00;;
51828;SDS011;37881;48.024;8.774;2022-10-28T15:14:27;12.37;;;4.63;;
51828;SDS011;37881;48.024;8.774;2022-10-28T15:16:54;10.07;;;4.88;;
51828;SDS011;37881;48.024;8.774;2022-10-28T15:19:22;10.55;;;5.40;;
51828;SDS011;37881;48.024;8.774;2022-10-28T15:21:59;10.95;;;5.15;;
51828;SDS011;37881;48.024;8.774;2022-10-28T15:24:37;11.35;;;4.72;;
51828;SDS011;37881;48.024;8.774;2022-10-28T15:27:11;14.40;;;4.90;;
51828;SDS011;37881;48.024;8.774;2022-10-28T15:29:40;11.75;;;4.35;;
51828;SDS011;37881;48.024;8.774;2022-10-28T15:32:23;10.30;;;4.80;;
51828;SDS011;37881;48.024;8.774;2022-10-28T15:34:51;12.77;;;5.22;;
51828;SDS011;37881;48.024;8.774;2022-10-28T15:37:19;12.50;;;4.65;;
51828;SDS011;37881;48.024;8.774;2022-10-28T15:39:48;10.70;;;4.50;;
51828;SDS011;37881;48.024;8.774;2022-10-28T15:45:15;12.52;;;4.70;;
51828;SDS011;37881;48.024;8.774;2022-10-28T15:47:43;11.25;;;4.80;;
51828;SDS011;37881;48.024;8.774;2022-10-28T15:52:42;12.30;;;4.73;;
51828;SDS011;37881;48.024;8.774;2022-10-28T16:00:51;12.52;;;5.40;;
51828;SDS011;37881;48.024;8.774;2022-10-28T16:03:24;16.92;;;5.50;;
51828;SDS011;37881;48.024;8.774;2022-10-28T16:05:56;12.17;;;4.90;;
51828;SDS011;37881;48.024;8.774;2022-10-28T16:08:25;13.05;;;5.15;;
51828;SDS011;37881;48.024;8.774;2022-10-28T16:11:03;15.45;;;5.70;;
51828;SDS011;37881;48.024;8.774;2022-10-28T16:13:39;13.52;;;5.50;;
51828;SDS011;37881;48.024;8.774;2022-10-28T16:16:24;10.50;;;5.43;;
51828;SDS011;37881;48.024;8.774;2022-10-28T16:19:08;10.33;;;4.80;;
51828;SDS011;37881;48.024;8.774;2022-10-28T16:21:52;12.35;;;5.15;;
51828;SDS011;37881;48.024;8.774;2022-10-28T16:24:19;12.82;;;4.50;;
51828;SDS011;37881;48.024;8.774;2022-10-28T16:26:48;10.70;;;4.75;;
51828;SDS011;37881;48.024;8.774;2022-10-28T16:29:14;8.52;;;4.80;;
51828;SDS011;37881;48.024;8.774;2022-10-28T16:31:49;11.70;;;4.30;;
51828;SDS011;37881;48.024;8.774;2022-10-28T16:34:18;10.75;;;4.75;;
51828;SDS011;37881;48.024;8.774;2022-10-28T16:36:44;13.00;;;5.10;;
51828;SDS011;37881;48.024;8.774;2022-10-28T16:39:13;11.13;;;5.10;;
51828;SDS011;37881;48.024;8.774;2022-10-28T16:41:40;13.88;;;5.68;;
51828;SDS011;37881;48.024;8.774;2022-10-28T16:44:16;11.30;;;5.03;;
51828;SDS011;37881;48.024;8.774;2022-10-28T16:46:43;11.00;;;4.85;;
51828;SDS011;37881;48.024;8.774;2022-10-28T16:49:12;13.82;;;4.97;;
51828;SDS011;37881;48.024;8.774;2022-10-28T16:51:39;12.55;;;4.88;;
51828;SDS011;37881;48.024;8.774;2022-10-28T16:54:06;13.23;;;4.80;;
51828;SDS011;37881;48.024;8.774;2022-10-28T16:56:32;11.83;;;4.90;;
51828;SDS011;37881;48.024;8.774;2022-10-28T16:58:59;10.50;;;5.00;;
51828;SDS011;37881;48.024;8.774;2022-10-28T17:01:26;9.55;;;4.43;;
51828;SDS011;37881;48.024;8.774;2022-10-28T17:03:53;13.90;;;6.40;;
51828;SDS011;37881;48.024;8.774;2022-10-28T17:06:20;10.32;;;5.82;;
51828;SDS011;37881;48.024;8.774;2022-10-28T17:08:46;9.90;;;4.37;;
51828;SDS011;37881;48.024;8.774;2022-10-28T17:11:31;11.82;;;5.50;;
51828;SDS011;37881;48.024;8.774;2022-10-28T17:13:58;17.55;;;6.10;;
51828;SDS011;37881;48.024;8.774;2022-10-28T17:16:25;15.25;;;5.85;;
51828;SDS011;37881;48.024;8.774;2022-10-28T17:18:51;18.15;;;6.88;;
51828;SDS011;37881;48.024;8.774;2022-10-28T17:21:18;15.47;;;7.30;;
51828;SDS011;37881;48.024;8.774;2022-10-28T17:23:45;23.25;;;11.77;;
51828;SDS011;37881;48.024;8.774;2022-10-28T17:26:11;15.80;;;9.15;;
51828;SDS011;37881;48.024;8.774;2022-10-28T17:28:38;15.77;;;7.85;;
51828;SDS011;37881;48.024;8.774;2022-10-28T17:31:06;13.52;;;7.65;;
51828;SDS011;37881;48.024;8.774;2022-10-28T17:33:33;19.07;;;8.63;;
51828;SDS011;37881;48.024;8.774;2022-10-28T17:36:00;18.45;;;9.85;;
51828;SDS011;37881;48.024;8.774;2022-10-28T17:38:33;25.70;;;12.23;;
51828;SDS011;37881;48.024;8.774;2022-10-28T17:41:00;19.27;;;10.05;;
51828;SDS011;37881;48.024;8.774;2022-10-28T17:43:27;16.98;;;8.63;;
51828;SDS011;37881;48.024;8.774;2022-10-28T17:46:01;17.70;;;8.03;;
51828;SDS011;37881;48.024;8.774;2022-10-28T17:48:32;15.63;;;7.63;;
51828;SDS011;37881;48.024;8.774;2022-10-28T17:50:59;14.95;;;8.00;;
51828;SDS011;37881;48.024;8.774;2022-10-28T17:53:26;14.32;;;7.55;;
51828;SDS011;37881;48.024;8.774;2022-10-28T17:55:56;24.08;;;11.20;;
51828;SDS011;37881;48.024;8.774;2022-10-28T17:58:24;26.27;;;12.63;;